Date,TemperatureHighF,TemperatureAvgF,TemperatureLowF,DewpointHighF,DewpointAvgF,DewpointLowF,HumidityHigh,HumidityAvg,HumidityLow,PressureMaxIn,PressureMinIn,WindSpeedMaxMPH,WindSpeedAvgMPH,GustSpeedMaxMPH,PrecipitationSumIn
2012-11-29,42.0,42.0,42.0,29.9,29.5,29.1,62,61,60,30.25,30.24,7,6,12,0.00
2012-11-30,42.4,36.5,32.3,31.3,26.6,23.6,75,67,55,30.55,30.42,7,3,12,0.00
2012-12-1,47.2,39.9,34.4,42.9,34.8,25.5,92,82,64,30.61,30.49,3,2,6,0.06
2012-12-2,59.3,53.2,47.2,53.6,49.1,42.9,92,86,76,30.49,30.13,5,2,12,0.04
2012-12-3,57.9,53.7,49.6,52.0,48.7,44.9,92,84,64,30.18,30.09,8,6,21,0.01
2012-12-4,55.6,51.7,36.2,52.4,49.0,34.9,96,91,81,30.36,30.07,4,2,8,0.00
2012-12-5,58.4,50.7,38.2,55.3,41.9,22.5,94,73,50,30.12,29.91,9,5,22,0.04
2012-12-6,38.2,31.0,19.5,22.9,20.2,17.3,92,65,50,30.35,30.12,8,3,18,0.00
2012-12-7,49.7,33.0,19.3,42.8,30.0,17.1,93,89,75,30.34,30.16,4,1,10,0.00
2012-12-8,52.0,52.0,52.0,50.9,50.9,50.9,96,96,96,29.94,29.94,2,2,2,0.00
2012-12-11,49.7,45.3,38.1,47.3,35.4,25.4,94,69,56,30.17,29.77,7,4,14,0.03
2012-12-12,39.3,33.7,26.4,26.6,24.6,21.9,94,70,54,30.46,30.17,7,2,13,0.00
2012-12-13,46.4,33.0,23.6,32.6,27.8,22.1,94,82,56,30.49,30.33,5,1,9,0.00
2012-12-14,46.7,31.3,23.1,35.6,27.3,21.4,95,86,56,30.33,30.19,7,1,16,0.00
2012-12-17,45.9,45.9,45.9,44.5,44.5,44.5,95,95,95,29.94,29.94,3,3,3,0.00
2012-12-18,55.8,49.9,46.8,53.6,47.8,43.4,97,92,88,29.54,29.45,6,3,15,0.31
2012-12-19,48.7,44.1,39.5,44.7,35.0,31.3,91,70,59,30.03,29.47,11,8,22,0.00
2012-12-20,43.6,39.5,34.7,37.8,33.6,30.8,88,79,71,30.22,30.03,7,3,12,0.00
2012-12-21,53.2,46.4,41.7,51.6,41.5,30.7,95,83,64,30.05,29.19,10,6,24,0.64
2012-12-22,42.0,37.9,33.9,35.7,27.7,20.1,88,67,51,29.71,29.31,13,7,28,0.05
2012-12-23,40.9,38.5,34.6,31.9,25.6,20.5,73,60,51,29.93,29.70,12,7,26,0.00
2012-12-24,40.7,35.9,28.8,31.1,25.2,23.3,89,66,53,30.11,29.93,8,3,16,0.00
2012-12-25,41.0,36.7,31.5,39.4,33.9,25.4,94,90,78,30.23,29.96,8,3,12,0.12
2012-12-26,40.9,35.4,25.8,37.7,30.0,23.2,93,81,68,30.33,29.86,8,4,15,0.35
2012-12-27,54.6,44.7,33.7,50.6,42.1,29.1,95,91,82,29.86,29.23,11,6,22,0.76
2012-12-28,38.0,34.3,29.8,30.8,25.1,21.5,85,69,59,30.05,29.62,10,6,24,0.00
2012-12-30,31.7,31.6,31.6,24.3,23.7,23.0,74,72,70,29.69,29.68,12,11,16,0.00